Time;durP1;ratioP1;P1;durP2;ratioP2;P2;SDS_P1;SDS_P2;PMS_P1;PMS_P2;Temp;Humidity;BMP_temperature;BMP_pressure;BME280_temperature;BME280_humidity;BME280_pressure;Samples;Min_cycle;Max_cycle;Signal;HPM_P1;HPM_P2
2021/07/20 00:01:58;;;;;;;;;;;24.60;56.80;;;;;;1541689;75;782;-69
2021/07/20 00:04:00;;;;;;;;;;;24.60;56.80;;;;;;1543110;75;744;-70
2021/07/20 00:06:02;;;;;;;;;;;24.60;56.90;;;;;;1543376;75;739;-69
2021/07/20 00:08:04;;;;;;;;;;;24.60;56.80;;;;;;1532610;75;1960;-70
2021/07/20 00:10:07;;;;;;;;;;;24.60;57.00;;;;;;1536659;75;743;-70
2021/07/20 00:12:09;;;;;;;;;;;24.60;57.00;;;;;;1543733;75;774;-69
2021/07/20 00:14:11;;;;;;;;;;;24.60;57.10;;;;;;1543220;75;779;-70
2021/07/20 00:16:14;;;;;;;;;;;24.60;57.10;;;;;;1533687;75;1161;-70
2021/07/20 00:18:16;;;;;;;;;;;24.60;57.10;;;;;;1533026;75;717;-70
2021/07/20 00:20:19;;;;;;;;;;;24.60;57.10;;;;;;1543124;76;908;-70
2021/07/20 00:22:21;;;;;;;;;;;24.50;57.10;;;;;;1548199;76;645;-72
2021/07/20 00:24:22;;;;;;;;;;;24.50;57.10;;;;;;1546992;75;833;-70
2021/07/20 00:26:24;;;;;;;;;;;24.50;57.00;;;;;;1543044;76;1140;-70
2021/07/20 00:28:26;;;;;;;;;;;24.60;57.10;;;;;;1534591;76;1954;-70
2021/07/20 00:30:28;;;;;;;;;;;24.60;57.00;;;;;;1540035;75;646;-69
2021/07/20 00:32:30;;;;;;;;;;;24.50;57.10;;;;;;1536369;75;765;-69
2021/07/20 00:34:32;;;;;;;;;;;24.60;57.00;;;;;;1541492;75;759;-70
2021/07/20 00:36:34;;;;;;;;;;;24.70;57.10;;;;;;1535615;75;1140;-70
2021/07/20 00:38:36;;;;;;;;;;;24.60;57.00;;;;;;1535026;75;759;-71
2021/07/20 00:40:38;;;;;;;;;;;24.60;57.00;;;;;;1540527;75;733;-70
2021/07/20 00:42:40;;;;;;;;;;;24.60;57.00;;;;;;1541642;75;721;-68
2021/07/20 00:44:42;;;;;;;;;;;24.60;57.00;;;;;;1540236;75;719;-69
2021/07/20 00:46:44;;;;;;;;;;;24.60;57.10;;;;;;1525314;75;1149;-69
2021/07/20 00:48:46;;;;;;;;;;;24.60;56.90;;;;;;1541136;75;1899;-69
2021/07/20 00:50:48;;;;;;;;;;;24.60;57.00;;;;;;1547708;75;722;-69
2021/07/20 00:52:49;;;;;;;;;;;24.50;57.00;;;;;;1538257;74;838;-69
2021/07/20 00:54:51;;;;;;;;;;;24.50;56.90;;;;;;1531785;75;743;-70
2021/07/20 00:56:53;;;;;;;;;;;24.60;56.80;;;;;;1527822;76;1134;-69
2021/07/20 00:58:55;;;;;;;;;;;24.60;56.80;;;;;;1543028;75;817;-70
2021/07/20 01:00:57;;;;;;;;;;;24.70;57.10;;;;;;1543049;75;780;-69
2021/07/20 01:02:59;;;;;;;;;;;24.60;56.80;;;;;;1542922;75;777;-68
2021/07/20 01:05:01;;;;;;;;;;;24.60;56.80;;;;;;1542277;75;736;-68
2021/07/20 01:07:03;;;;;;;;;;;24.60;56.80;;;;;;1543055;75;1148;-68
2021/07/20 01:09:05;;;;;;;;;;;24.60;56.80;;;;;;1543684;75;1941;-68
2021/07/20 01:11:07;;;;;;;;;;;24.70;56.90;;;;;;1525171;75;769;-68
2021/07/20 01:13:09;;;;;;;;;;;24.60;56.80;;;;;;1537427;75;778;-69
2021/07/20 01:15:11;;;;;;;;;;;24.60;56.80;;;;;;1528091;75;687;-68
2021/07/20 01:17:13;;;;;;;;;;;24.60;56.70;;;;;;1539539;75;1138;-69
2021/07/20 01:19:15;;;;;;;;;;;24.60;56.50;;;;;;1535826;75;750;-69
2021/07/20 01:21:17;;;;;;;;;;;24.60;56.70;;;;;;1531776;75;708;-68
2021/07/20 01:23:35;;;;;;;;;;;24.60;56.60;;;;;;1537112;75;739;-69
2021/07/20 01:25:38;;;;;;;;;;;24.60;56.50;;;;;;1536913;75;742;-69
2021/07/20 01:27:40;;;;;;;;;;;24.60;56.50;;;;;;1573162;74;2072;-72
2021/07/20 01:29:42;;;;;;;;;;;24.60;56.60;;;;;;1589508;73;1930;-73
2021/07/20 01:31:44;;;;;;;;;;;24.60;56.50;;;;;;1584404;73;718;-72
2021/07/20 01:33:47;;;;;;;;;;;24.60;56.70;;;;;;1585444;73;681;-72
2021/07/20 01:35:51;;;;;;;;;;;24.60;56.60;;;;;;1587232;73;655;-72
2021/07/20 01:37:53;;;;;;;;;;;24.60;56.60;;;;;;1586820;73;1192;-74
2021/07/20 01:39:55;;;;;;;;;;;24.60;56.60;;;;;;1570441;73;766;-74
2021/07/20 01:41:56;;;;;;;;;;;24.60;56.50;;;;;;1577690;74;698;-73
2021/07/20 01:44:02;;;;;;;;;;;24.60;56.50;;;;;;1583480;74;650;-72
2021/07/20 01:46:04;;;;;;;;;;;24.60;56.50;;;;;;1583186;74;717;-74
2021/07/20 01:48:06;;;;;;;;;;;24.60;56.50;;;;;;1568834;73;1157;-74
2021/07/20 01:50:08;;;;;;;;;;;24.60;56.40;;;;;;1570303;73;1950;-73
2021/07/20 01:52:11;;;;;;;;;;;24.60;56.50;;;;;;1580886;73;699;-74
2021/07/20 01:54:13;;;;;;;;;;;24.60;56.40;;;;;;1596410;73;740;-76
2021/07/20 01:56:15;;;;;;;;;;;24.60;56.40;;;;;;1586511;73;737;-74
2021/07/20 01:58:17;;;;;;;;;;;24.70;56.40;;;;;;1581982;73;1176;-72
2021/07/20 02:00:19;;;;;;;;;;;24.70;56.30;;;;;;1579563;73;733;-73
2021/07/20 02:04:41;;;;;;;;;;;24.70;56.30;;;;;;1579183;73;858;-74
2021/07/20 02:08:58;;;;;;;;;;;24.60;56.50;;;;;;1568877;73;1883;-74
2021/07/20 02:11:01;;;;;;;;;;;24.50;56.80;;;;;;1566663;75;768;-75
2021/07/20 02:13:04;;;;;;;;;;;24.70;56.80;;;;;;1582627;73;1039;-74
2021/07/20 02:15:06;;;;;;;;;;;24.60;56.80;;;;;;1578593;73;738;-74
2021/07/20 02:17:08;;;;;;;;;;;24.60;56.80;;;;;;1590876;73;1136;-77
2021/07/20 02:19:11;;;;;;;;;;;24.50;56.90;;;;;;1588173;73;785;-74
2021/07/20 02:21:13;;;;;;;;;;;24.60;57.00;;;;;;1582640;73;666;-75
2021/07/20 02:23:15;;;;;;;;;;;24.60;57.00;;;;;;1571626;74;673;-75
2021/07/20 02:25:17;;;;;;;;;;;24.60;57.00;;;;;;1578172;75;729;-76
2021/07/20 02:27:19;;;;;;;;;;;24.70;57.10;;;;;;1585124;75;1136;-76
2021/07/20 02:29:21;;;;;;;;;;;24.60;56.80;;;;;;1588996;73;1933;-75
2021/07/20 02:31:23;;;;;;;;;;;24.60;56.80;;;;;;1583825;74;682;-74
2021/07/20 02:33:25;;;;;;;;;;;24.60;56.80;;;;;;1590975;73;690;-72
2021/07/20 02:35:27;;;;;;;;;;;24.50;56.80;;;;;;1591694;73;747;-75
2021/07/20 02:37:29;;;;;;;;;;;24.50;56.80;;;;;;1580334;74;1148;-74
2021/07/20 02:39:30;;;;;;;;;;;24.60;56.70;;;;;;1580290;73;704;-74
2021/07/20 02:41:32;;;;;;;;;;;24.50;56.70;;;;;;1584246;73;727;-77
2021/07/20 02:43:34;;;;;;;;;;;24.60;56.70;;;;;;1583458;73;681;-74
2021/07/20 02:45:36;;;;;;;;;;;24.60;56.70;;;;;;1578479;73;603;-74
2021/07/20 02:47:38;;;;;;;;;;;24.60;56.80;;;;;;1577782;73;1166;-74
2021/07/20 02:49:40;;;;;;;;;;;24.60;56.80;;;;;;1584781;73;1928;-74
2021/07/20 02:51:44;;;;;;;;;;;24.60;56.80;;;;;;1589434;74;716;-71
2021/07/20 02:53:46;;;;;;;;;;;24.60;56.80;;;;;;1589228;73;723;-74
2021/07/20 02:55:49;;;;;;;;;;;24.60;56.80;;;;;;1589047;74;760;-73
2021/07/20 02:57:50;;;;;;;;;;;24.50;56.70;;;;;;1584826;74;1125;-75
2021/07/20 02:59:52;;;;;;;;;;;24.60;56.80;;;;;;1587931;74;711;-74
2021/07/20 03:01:56;;;;;;;;;;;24.60;56.80;;;;;;1581652;74;711;-73
2021/07/20 03:03:58;;;;;;;;;;;24.50;56.80;;;;;;1586672;74;702;-75
2021/07/20 03:06:00;;;;;;;;;;;24.50;56.80;;;;;;1579918;73;716;-74
2021/07/20 03:08:02;;;;;;;;;;;24.50;56.80;;;;;;1586589;74;1129;-72
2021/07/20 03:10:03;;;;;;;;;;;24.50;56.80;;;;;;1589867;73;1935;-72
2021/07/20 03:12:06;;;;;;;;;;;24.50;56.80;;;;;;1587207;73;702;-74
2021/07/20 03:14:09;;;;;;;;;;;24.60;56.90;;;;;;1588342;73;759;-73
2021/07/20 03:16:11;;;;;;;;;;;24.50;56.80;;;;;;1583025;74;582;-74
2021/07/20 03:18:13;;;;;;;;;;;24.60;57.00;;;;;;1584702;73;1054;-74
2021/07/20 03:20:15;;;;;;;;;;;24.50;56.90;;;;;;1587890;73;720;-73
2021/07/20 03:22:17;;;;;;;;;;;24.60;57.00;;;;;;1590146;73;717;-74
2021/07/20 03:24:19;;;;;;;;;;;24.60;57.10;;;;;;1588195;74;684;-74
2021/07/20 03:26:21;;;;;;;;;;;24.60;57.00;;;;;;1582526;74;679;-74
2021/07/20 03:28:23;;;;;;;;;;;24.60;57.00;;;;;;1576590;74;1131;-75
2021/07/20 03:30:26;;;;;;;;;;;24.60;57.10;;;;;;1586836;74;1931;-78
2021/07/20 03:32:28;;;;;;;;;;;24.60;57.10;;;;;;1584013;73;684;-75
2021/07/20 03:34:30;;;;;;;;;;;24.60;57.10;;;;;;1587323;74;704;-78
2021/07/20 03:36:32;;;;;;;;;;;24.60;57.10;;;;;;1590793;74;1123;-74
2021/07/20 03:38:34;;;;;;;;;;;24.60;57.10;;;;;;1585865;74;686;-75
2021/07/20 03:40:35;;;;;;;;;;;24.60;57.10;;;;;;1564797;75;716;-75
2021/07/20 03:42:38;;;;;;;;;;;24.60;57.10;;;;;;1580606;73;711;-75
2021/07/20 03:44:40;;;;;;;;;;;24.50;57.10;;;;;;1583329;74;720;-76
2021/07/20 03:46:41;;;;;;;;;;;24.60;57.10;;;;;;1582971;73;1153;-78
2021/07/20 03:48:43;;;;;;;;;;;24.60;57.10;;;;;;1587449;73;704;-76
2021/07/20 03:50:45;;;;;;;;;;;24.50;57.10;;;;;;1590700;73;1940;-79
2021/07/20 03:52:47;;;;;;;;;;;24.60;57.10;;;;;;1587158;74;730;-75
2021/07/20 03:54:49;;;;;;;;;;;24.60;57.00;;;;;;1585798;73;754;-75
2021/07/20 03:56:51;;;;;;;;;;;24.50;57.00;;;;;;1589947;73;1159;-76
2021/07/20 03:58:53;;;;;;;;;;;24.60;57.00;;;;;;1588219;73;686;-76
2021/07/20 04:00:56;;;;;;;;;;;24.60;57.10;;;;;;1586035;73;718;-75
2021/07/20 04:03:40;;;;;;;;;;;24.60;57.10;;;;;;1577527;74;722;-75
2021/07/20 04:05:04;;;;;;;;;;;24.60;57.20;;;;;;1565982;73;1106;-75
2021/07/20 04:07:06;;;;;;;;;;;24.60;57.20;;;;;;1580651;73;1086;-75
2021/07/20 04:09:08;;;;;;;;;;;24.60;57.20;;;;;;1582590;73;743;-74
2021/07/20 04:11:10;;;;;;;;;;;24.50;57.10;;;;;;1579125;74;1957;-72
2021/07/20 04:13:12;;;;;;;;;;;24.60;57.10;;;;;;1567689;75;722;-74
2021/07/20 04:15:15;;;;;;;;;;;24.50;57.20;;;;;;1583219;73;727;-73
2021/07/20 04:17:17;;;;;;;;;;;24.50;57.10;;;;;;1589260;74;1157;-73
2021/07/20 04:19:19;;;;;;;;;;;24.60;57.20;;;;;;1578655;73;721;-74
2021/07/20 04:21:21;;;;;;;;;;;24.60;57.10;;;;;;1579962;73;721;-74
2021/07/20 04:23:23;;;;;;;;;;;24.70;57.20;;;;;;1586565;74;718;-77
2021/07/20 04:25:25;;;;;;;;;;;24.60;57.10;;;;;;1585556;73;693;-77
2021/07/20 04:27:27;;;;;;;;;;;24.60;57.10;;;;;;1581039;73;1133;-77
2021/07/20 04:29:28;;;;;;;;;;;24.60;57.10;;;;;;1579097;74;707;-75
2021/07/20 04:31:30;;;;;;;;;;;24.60;57.10;;;;;;1573419;74;1942;-74
2021/07/20 04:33:33;;;;;;;;;;;24.60;57.00;;;;;;1584864;74;680;-74
2021/07/20 04:35:34;;;;;;;;;;;24.50;57.00;;;;;;1574066;74;720;-75
2021/07/20 04:37:36;;;;;;;;;;;24.70;57.00;;;;;;1584246;73;1117;-77
2021/07/20 04:39:38;;;;;;;;;;;24.60;56.90;;;;;;1574015;73;737;-74
2021/07/20 04:41:41;;;;;;;;;;;24.60;56.90;;;;;;1585201;75;732;-74
2021/07/20 04:43:44;;;;;;;;;;;24.60;56.80;;;;;;1589048;73;635;-74
2021/07/20 04:45:46;;;;;;;;;;;24.60;56.80;;;;;;1586295;75;702;-75
2021/07/20 04:47:48;;;;;;;;;;;24.50;56.90;;;;;;1584278;73;1150;-77
2021/07/20 04:49:50;;;;;;;;;;;24.70;57.00;;;;;;1592180;73;1930;-74
2021/07/20 04:51:52;;;;;;;;;;;24.60;56.90;;;;;;1591729;73;1001;-74
2021/07/20 04:53:54;;;;;;;;;;;24.60;56.90;;;;;;1597553;74;640;-76
2021/07/20 04:55:56;;;;;;;;;;;24.60;57.00;;;;;;1591978;74;654;-74
2021/07/20 04:57:58;;;;;;;;;;;24.60;57.00;;;;;;1580628;74;1121;-74
2021/07/20 05:00:00;;;;;;;;;;;24.50;57.10;;;;;;1584461;73;743;-73
2021/07/20 05:02:02;;;;;;;;;;;24.60;57.00;;;;;;1594169;73;696;-74
2021/07/20 05:04:04;;;;;;;;;;;24.60;57.00;;;;;;1575381;73;664;-74
2021/07/20 05:06:06;;;;;;;;;;;24.60;56.90;;;;;;1565842;74;706;-75
2021/07/20 05:08:12;;;;;;;;;;;24.60;56.90;;;;;;1573977;73;1133;-73
2021/07/20 05:10:14;;;;;;;;;;;24.70;57.10;;;;;;1579124;73;1915;-74
2021/07/20 05:12:16;;;;;;;;;;;24.70;57.20;;;;;;1574303;73;724;-70
2021/07/20 05:14:19;;;;;;;;;;;24.70;57.00;;;;;;1575685;73;702;-72
2021/07/20 05:16:21;;;;;;;;;;;24.70;56.90;;;;;;1565056;74;733;-73
2021/07/20 05:18:22;;;;;;;;;;;24.60;56.70;;;;;;1568742;74;1015;-71
2021/07/20 05:20:24;;;;;;;;;;;24.60;56.60;;;;;;1566915;73;712;-73
2021/07/20 05:22:26;;;;;;;;;;;24.60;56.60;;;;;;1570313;73;741;-73
2021/07/20 05:24:28;;;;;;;;;;;24.60;56.50;;;;;;1567818;73;653;-73
2021/07/20 05:26:30;;;;;;;;;;;24.50;56.40;;;;;;1573731;74;1150;-73
2021/07/20 05:28:32;;;;;;;;;;;24.60;56.50;;;;;;1568219;74;704;-73
2021/07/20 05:30:34;;;;;;;;;;;24.70;56.70;;;;;;1566554;74;1937;-70
2021/07/20 05:32:36;;;;;;;;;;;24.60;56.60;;;;;;1583798;73;693;-70
2021/07/20 05:34:38;;;;;;;;;;;24.50;56.60;;;;;;1574268;73;719;-70
2021/07/20 05:36:40;;;;;;;;;;;24.60;56.60;;;;;;1570691;74;1392;-71
2021/07/20 05:38:42;;;;;;;;;;;24.70;56.90;;;;;;1568099;73;780;-70
2021/07/20 05:40:44;;;;;;;;;;;24.70;56.90;;;;;;1583161;74;709;-69
2021/07/20 05:42:49;;;;;;;;;;;24.70;56.70;;;;;;1570930;73;685;-72
2021/07/20 05:44:51;;;;;;;;;;;24.70;56.80;;;;;;1577075;74;684;-70
2021/07/20 05:46:52;;;;;;;;;;;24.60;56.40;;;;;;1580812;73;1137;-71
2021/07/20 05:48:54;;;;;;;;;;;24.70;56.50;;;;;;1587532;73;698;-68
2021/07/20 05:50:58;;;;;;;;;;;24.70;56.30;;;;;;1594796;73;1940;-71
2021/07/20 05:53:00;;;;;;;;;;;24.70;56.30;;;;;;1587226;73;811;-71
2021/07/20 05:55:04;;;;;;;;;;;24.70;56.20;;;;;;1586147;73;727;-67
2021/07/20 05:57:08;;;;;;;;;;;24.70;56.10;;;;;;1578178;74;1147;-69
2021/07/20 05:59:10;;;;;;;;;;;24.60;55.80;;;;;;1590360;73;1082;-67
2021/07/20 06:01:12;;;;;;;;;;;24.70;55.70;;;;;;1575722;73;802;-69
2021/07/20 06:03:16;;;;;;;;;;;24.60;55.80;;;;;;1561686;75;838;-70
2021/07/20 06:05:19;;;;;;;;;;;24.70;55.80;;;;;;1577812;74;2246;-68
2021/07/20 06:07:21;;;;;;;;;;;24.70;55.60;;;;;;1591046;74;1156;-68
2021/07/20 06:09:23;;;;;;;;;;;24.70;55.40;;;;;;1584488;74;586;-68
2021/07/20 06:11:25;;;;;;;;;;;24.70;55.30;;;;;;1593430;74;1930;-67
2021/07/20 06:13:31;;;;;;;;;;;24.60;55.20;;;;;;1572774;74;686;-66
2021/07/20 06:15:33;;;;;;;;;;;24.60;55.20;;;;;;1568131;73;1677;-68
2021/07/20 06:17:35;;;;;;;;;;;24.60;55.10;;;;;;1573374;73;1144;-67
2021/07/20 06:19:37;;;;;;;;;;;24.70;55.00;;;;;;1588435;73;698;-67
2021/07/20 06:21:40;;;;;;;;;;;24.70;54.80;;;;;;1590018;73;774;-69
2021/07/20 06:23:43;;;;;;;;;;;24.70;54.60;;;;;;1587946;74;782;-65
2021/07/20 06:25:49;;;;;;;;;;;24.70;54.30;;;;;;1590777;74;674;-67
2021/07/20 06:27:50;;;;;;;;;;;24.60;53.90;;;;;;1589272;74;1438;-66
2021/07/20 06:29:53;;;;;;;;;;;24.70;53.70;;;;;;1584763;73;788;-68
2021/07/20 06:31:55;;;;;;;;;;;24.80;53.10;;;;;;1574142;75;1950;-67
2021/07/20 06:33:57;;;;;;;;;;;24.70;52.20;;;;;;1587527;74;785;-67
2021/07/20 06:35:59;;;;;;;;;;;24.80;51.90;;;;;;1592231;73;758;-66
2021/07/20 06:38:02;;;;;;;;;;;24.70;51.80;;;;;;1598249;73;1122;-64
2021/07/20 06:40:04;;;;;;;;;;;24.70;52.10;;;;;;1590655;74;1050;-66
2021/07/20 06:42:06;;;;;;;;;;;24.80;52.30;;;;;;1594782;74;778;-67
2021/07/20 06:44:08;;;;;;;;;;;24.80;52.40;;;;;;1591987;74;728;-66
2021/07/20 06:46:10;;;;;;;;;;;24.80;52.10;;;;;;1591732;73;764;-67
2021/07/20 06:48:15;;;;;;;;;;;24.80;52.00;;;;;;1593196;73;1149;-68
2021/07/20 06:50:18;;;;;;;;;;;24.90;52.10;;;;;;1576001;74;705;-69
2021/07/20 06:52:19;;;;;;;;;;;24.90;51.70;;;;;;1569797;73;1950;-68
2021/07/20 06:54:21;;;;;;;;;;;25.00;51.60;;;;;;1564467;73;761;-69
2021/07/20 06:56:24;;;;;;;;;;;25.00;51.40;;;;;;1594444;73;723;-68
2021/07/20 06:58:27;;;;;;;;;;;25.00;51.30;;;;;;1584705;73;1152;-67
2021/07/20 07:00:29;;;;;;;;;;;25.00;51.40;;;;;;1569068;74;745;-67
2021/07/20 07:02:30;;;;;;;;;;;25.00;51.40;;;;;;1567724;73;701;-66
2021/07/20 07:04:34;;;;;;;;;;;25.00;51.10;;;;;;1574664;74;656;-67
2021/07/20 07:06:37;;;;;;;;;;;25.00;51.20;;;;;;1560341;74;1566;-67
2021/07/20 07:08:39;;;;;;;;;;;25.10;50.60;;;;;;1573379;73;1712;-66
2021/07/20 07:10:41;;;;;;;;;;;25.10;50.70;;;;;;1569016;74;1942;-65
2021/07/20 07:12:43;;;;;;;;;;;25.00;50.80;;;;;;1579085;74;732;-65
2021/07/20 07:14:46;;;;;;;;;;;25.00;50.90;;;;;;1563886;74;655;-66
2021/07/20 07:16:47;;;;;;;;;;;25.00;50.70;;;;;;1567632;73;1094;-67
2021/07/20 07:18:49;;;;;;;;;;;25.10;50.70;;;;;;1571507;73;772;-66
2021/07/20 07:20:51;;;;;;;;;;;25.10;50.50;;;;;;1566808;74;787;-65
2021/07/20 07:22:53;;;;;;;;;;;25.10;50.80;;;;;;1574582;74;797;-66
2021/07/20 07:24:55;;;;;;;;;;;25.10;50.80;;;;;;1581009;74;823;-65
2021/07/20 07:27:16;;;;;;;;;;;25.10;50.80;;;;;;1576733;74;1119;-65
2021/07/20 07:29:19;;;;;;;;;;;25.10;50.80;;;;;;1619896;71;689;-68
2021/07/20 07:31:21;;;;;;;;;;;25.20;50.70;;;;;;1616713;73;1932;-71
2021/07/20 07:33:23;;;;;;;;;;;25.10;50.40;;;;;;1610010;73;693;-72
2021/07/20 07:35:25;;;;;;;;;;;25.20;50.10;;;;;;1609483;73;712;-70
2021/07/20 07:37:26;;;;;;;;;;;25.10;50.50;;;;;;1600991;73;1210;-68
2021/07/20 07:39:28;;;;;;;;;;;25.20;50.60;;;;;;1596541;73;784;-68
2021/07/20 07:41:33;;;;;;;;;;;25.20;50.70;;;;;;1582493;73;783;-70
2021/07/20 07:43:37;;;;;;;;;;;25.20;50.60;;;;;;1597275;73;1537;-72
2021/07/20 07:45:39;;;;;;;;;;;25.20;50.60;;;;;;1598428;73;734;-70
2021/07/20 07:47:41;;;;;;;;;;;25.20;50.40;;;;;;1590279;73;1167;-71
2021/07/20 07:49:44;;;;;;;;;;;25.20;50.50;;;;;;1564045;75;764;-72
2021/07/20 07:51:47;;;;;;;;;;;25.20;50.40;;;;;;1596835;73;1927;-69
2021/07/20 07:53:48;;;;;;;;;;;25.20;50.50;;;;;;1594237;73;776;-66
2021/07/20 07:55:51;;;;;;;;;;;25.30;50.50;;;;;;1551420;74;723;-67
2021/07/20 07:57:52;;;;;;;;;;;25.30;50.30;;;;;;1587682;73;1121;-70
2021/07/20 07:59:56;;;;;;;;;;;25.40;50.20;;;;;;1588423;73;754;-69
2021/07/20 08:01:58;;;;;;;;;;;25.40;50.20;;;;;;1597765;73;763;-69
2021/07/20 08:04:00;;;;;;;;;;;25.40;50.10;;;;;;1570355;74;780;-70
2021/07/20 08:06:04;;;;;;;;;;;25.30;50.20;;;;;;1599730;73;723;-74
2021/07/20 08:08:08;;;;;;;;;;;25.40;50.20;;;;;;1597953;73;1135;-70
2021/07/20 08:10:09;;;;;;;;;;;25.40;50.20;;;;;;1591663;73;1631;-71
2021/07/20 08:12:11;;;;;;;;;;;25.40;50.10;;;;;;1601514;73;1926;-70
2021/07/20 08:14:13;;;;;;;;;;;25.40;50.10;;;;;;1554242;74;850;-69
2021/07/20 08:16:15;;;;;;;;;;;25.40;50.00;;;;;;1603400;74;668;-75
2021/07/20 08:18:19;;;;;;;;;;;25.50;50.00;;;;;;1595912;73;1163;-70
2021/07/20 08:20:21;;;;;;;;;;;25.40;50.00;;;;;;1593497;73;1104;-69
2021/07/20 08:22:23;;;;;;;;;;;25.50;49.90;;;;;;1598368;73;825;-73
2021/07/20 08:24:26;;;;;;;;;;;25.40;49.90;;;;;;1601015;74;738;-71
2021/07/20 08:26:29;;;;;;;;;;;25.50;49.70;;;;;;1601451;73;668;-71
2021/07/20 08:28:42;;;;;;;;;;;25.50;49.50;;;;;;1598522;73;1148;-72
2021/07/20 08:30:45;;;;;;;;;;;25.40;49.40;;;;;;1596651;73;695;-69
2021/07/20 08:32:49;;;;;;;;;;;25.40;49.50;;;;;;1599272;74;2009;-73
2021/07/20 08:34:53;;;;;;;;;;;25.40;48.60;;;;;;1600730;74;789;-72
2021/07/20 08:36:56;;;;;;;;;;;25.30;48.10;;;;;;1599728;74;1053;-72
2021/07/20 08:38:58;;;;;;;;;;;25.30;48.90;;;;;;1601284;73;1156;-71
2021/07/20 08:41:03;;;;;;;;;;;25.30;49.00;;;;;;1600220;73;698;-70
2021/07/20 08:43:23;;;;;;;;;;;25.30;48.80;;;;;;1600484;74;905;-70
2021/07/20 08:45:27;;;;;;;;;;;25.30;48.90;;;;;;1601572;74;787;-69
2021/07/20 08:47:47;;;;;;;;;;;25.30;48.90;;;;;;1603067;74;1776;-72
2021/07/20 08:49:59;;;;;;;;;;;25.40;48.90;;;;;;1600411;73;680;-72
2021/07/20 08:52:06;;;;;;;;;;;25.40;48.90;;;;;;1595758;73;1917;-71
2021/07/20 08:54:09;;;;;;;;;;;25.40;48.90;;;;;;1599922;73;1395;-71
2021/07/20 08:56:11;;;;;;;;;;;25.40;48.90;;;;;;1596786;73;715;-69
2021/07/20 08:58:17;;;;;;;;;;;25.40;48.90;;;;;;1600385;73;1159;-73
2021/07/20 09:00:20;;;;;;;;;;;25.40;48.80;;;;;;1591384;73;1112;-73
2021/07/20 09:02:26;;;;;;;;;;;25.40;48.80;;;;;;1596760;74;755;-68
2021/07/20 09:04:33;;;;;;;;;;;25.40;48.80;;;;;;1595728;73;1137;-72
2021/07/20 09:06:39;;;;;;;;;;;25.40;48.80;;;;;;1600432;73;961;-72
2021/07/20 09:09:00;;;;;;;;;;;25.50;48.80;;;;;;1600045;73;1877;-70
2021/07/20 09:11:13;;;;;;;;;;;25.50;48.80;;;;;;1596190;73;787;-73
2021/07/20 09:13:16;;;;;;;;;;;25.50;48.80;;;;;;1598521;73;809;-72
2021/07/20 09:15:25;;;;;;;;;;;25.40;48.80;;;;;;1597552;73;812;-72
2021/07/20 09:17:24;;;;;;;;;;;25.40;48.90;;;;;;1591763;73;1515;-74
2021/07/20 09:19:33;;;;;;;;;;;25.40;48.90;;;;;;1595087;73;2050;-71
2021/07/20 09:21:37;;;;;;;;;;;25.50;48.80;;;;;;1594772;74;1880;-72
2021/07/20 09:23:40;;;;;;;;;;;25.50;48.80;;;;;;1594539;74;665;-72
2021/07/20 09:25:58;;;;;;;;;;;25.50;48.70;;;;;;1597243;73;816;-69
2021/07/20 09:28:04;;;;;;;;;;;25.50;48.60;;;;;;1600509;73;1150;-71
2021/07/20 09:30:11;;;;;;;;;;;25.50;47.60;;;;;;1600547;74;792;-70
2021/07/20 09:32:20;;;;;;;;;;;25.50;48.40;;;;;;1602223;73;1937;-72
2021/07/20 09:34:25;;;;;;;;;;;25.50;48.40;;;;;;1602356;73;772;-72
2021/07/20 09:36:31;;;;;;;;;;;25.50;48.40;;;;;;1598460;74;1923;-72
2021/07/20 09:38:38;;;;;;;;;;;25.50;48.10;;;;;;1595838;74;1206;-72
2021/07/20 09:40:47;;;;;;;;;;;25.50;48.40;;;;;;1597679;74;1827;-73
2021/07/20 09:42:54;;;;;;;;;;;25.50;48.10;;;;;;1590919;73;1108;-69
2021/07/20 09:45:00;;;;;;;;;;;25.50;48.10;;;;;;1590446;73;779;-70
2021/07/20 09:47:06;;;;;;;;;;;25.50;48.40;;;;;;1579346;73;1140;-73
2021/07/20 09:49:26;;;;;;;;;;;25.50;48.50;;;;;;1594746;73;721;-72
2021/07/20 09:51:29;;;;;;;;;;;25.40;48.50;;;;;;1596319;73;1927;-70
2021/07/20 09:53:45;;;;;;;;;;;25.40;48.60;;;;;;1592510;73;786;-71
2021/07/20 09:55:48;;;;;;;;;;;25.40;48.60;;;;;;1590799;73;1853;-70
2021/07/20 09:57:58;;;;;;;;;;;25.40;48.80;;;;;;1585726;73;1135;-69
2021/07/20 10:00:07;;;;;;;;;;;25.30;48.90;;;;;;1573064;74;1044;-68
2021/07/20 10:02:22;;;;;;;;;;;25.40;48.30;;;;;;1582473;73;821;-72
2021/07/20 10:04:43;;;;;;;;;;;25.30;48.70;;;;;;1581091;73;790;-72
2021/07/20 10:06:46;;;;;;;;;;;25.20;47.90;;;;;;1593700;73;606;-70
2021/07/20 10:08:53;;;;;;;;;;;25.10;47.70;;;;;;1584269;73;1556;-70
2021/07/20 10:11:09;;;;;;;;;;;25.10;48.60;;;;;;1579297;73;780;-70
2021/07/20 10:13:15;;;;;;;;;;;25.10;48.10;;;;;;1602799;73;1945;-69
2021/07/20 10:15:17;;;;;;;;;;;25.10;48.10;;;;;;1588608;73;774;-68
2021/07/20 10:17:23;;;;;;;;;;;25.10;48.30;;;;;;1576572;73;1064;-70
2021/07/20 10:19:29;;;;;;;;;;;25.10;46.80;;;;;;1561872;73;1636;-70
2021/07/20 10:21:31;;;;;;;;;;;25.20;47.90;;;;;;1592943;73;936;-70
2021/07/20 10:23:37;;;;;;;;;;;25.10;47.60;;;;;;1599422;73;789;-70
2021/07/20 10:25:58;;;;;;;;;;;25.20;47.70;;;;;;1593654;73;719;-70
2021/07/20 10:28:13;;;;;;;;;;;25.20;47.80;;;;;;1587238;73;1208;-70
2021/07/20 10:30:15;;;;;;;;;;;25.20;48.00;;;;;;1597790;73;807;-70
2021/07/20 10:32:18;;;;;;;;;;;25.10;48.30;;;;;;1592786;73;1926;-70
2021/07/20 10:34:21;;;;;;;;;;;25.10;48.30;;;;;;1593189;73;2035;-70
2021/07/20 10:36:33;;;;;;;;;;;25.20;48.20;;;;;;1591929;73;809;-72
2021/07/20 10:38:43;;;;;;;;;;;25.10;48.30;;;;;;1587299;73;1765;-70
2021/07/20 10:40:45;;;;;;;;;;;25.10;48.30;;;;;;1587656;73;706;-70
2021/07/20 10:42:55;;;;;;;;;;;25.10;48.30;;;;;;1579425;73;798;-72
2021/07/20 10:44:59;;;;;;;;;;;25.10;48.40;;;;;;1583074;73;788;-70
2021/07/20 10:47:02;;;;;;;;;;;25.00;48.10;;;;;;1594742;73;1157;-70
2021/07/20 10:49:06;;;;;;;;;;;25.00;47.80;;;;;;1592801;73;769;-71
2021/07/20 10:51:11;;;;;;;;;;;25.00;47.60;;;;;;1595775;73;1855;-72
2021/07/20 10:53:16;;;;;;;;;;;25.00;47.70;;;;;;1593787;73;1928;-70
2021/07/20 10:55:25;;;;;;;;;;;25.00;47.80;;;;;;1588028;73;1811;-70
2021/07/20 10:57:28;;;;;;;;;;;25.00;48.00;;;;;;1545994;74;1156;-72
2021/07/20 10:59:46;;;;;;;;;;;25.00;47.20;;;;;;1587101;73;769;-70
2021/07/20 11:01:59;;;;;;;;;;;25.00;47.80;;;;;;1598429;73;741;-71
2021/07/20 11:04:05;;;;;;;;;;;25.10;48.00;;;;;;1589132;73;716;-70
2021/07/20 11:06:09;;;;;;;;;;;24.90;48.10;;;;;;1592861;73;1962;-70
2021/07/20 11:08:10;;;;;;;;;;;25.00;48.20;;;;;;1594772;73;1230;-70
2021/07/20 11:10:33;;;;;;;;;;;25.00;48.20;;;;;;1602891;73;725;-71
2021/07/20 11:12:35;;;;;;;;;;;25.00;48.20;;;;;;1587963;74;1910;-70
2021/07/20 11:14:42;;;;;;;;;;;25.00;48.10;;;;;;1592430;73;780;-72
2021/07/20 11:16:43;;;;;;;;;;;25.00;48.30;;;;;;1592108;73;764;-71
2021/07/20 11:18:46;;;;;;;;;;;25.00;48.20;;;;;;1600152;73;1103;-70
2021/07/20 11:20:49;;;;;;;;;;;25.00;48.10;;;;;;1591477;73;847;-70
2021/07/20 11:22:52;;;;;;;;;;;25.00;48.00;;;;;;1577043;73;794;-70
2021/07/20 11:24:54;;;;;;;;;;;25.00;48.10;;;;;;1601399;73;755;-72
2021/07/20 11:26:57;;;;;;;;;;;25.00;47.80;;;;;;1598594;73;772;-70
2021/07/20 11:28:59;;;;;;;;;;;25.00;47.70;;;;;;1580632;73;1143;-70
2021/07/20 11:31:07;;;;;;;;;;;25.00;47.90;;;;;;1589254;73;806;-70
2021/07/20 11:33:07;;;;;;;;;;;25.00;47.90;;;;;;1598946;73;1912;-70
2021/07/20 11:35:13;;;;;;;;;;;25.00;48.10;;;;;;1582090;73;792;-71
2021/07/20 11:37:19;;;;;;;;;;;25.10;48.20;;;;;;1586662;73;1792;-73
2021/07/20 11:39:22;;;;;;;;;;;25.00;47.90;;;;;;1596558;73;772;-71
2021/07/20 11:41:31;;;;;;;;;;;25.00;47.80;;;;;;1597753;73;908;-68
2021/07/20 11:43:40;;;;;;;;;;;25.00;47.90;;;;;;1587334;73;2009;-70
2021/07/20 11:45:53;;;;;;;;;;;25.00;48.20;;;;;;1577257;74;1138;-68
2021/07/20 11:47:59;;;;;;;;;;;25.00;48.10;;;;;;1585596;73;1804;-70
2021/07/20 11:50:06;;;;;;;;;;;24.90;47.60;;;;;;1596998;73;1074;-74
2021/07/20 11:52:09;;;;;;;;;;;24.80;47.20;;;;;;1592861;73;1902;-71
2021/07/20 11:54:19;;;;;;;;;;;24.90;47.30;;;;;;1591810;74;1922;-70
2021/07/20 11:56:30;;;;;;;;;;;24.80;47.40;;;;;;1584072;73;2132;-70
2021/07/20 11:58:34;;;;;;;;;;;24.80;47.50;;;;;;1594944;73;1086;-71
2021/07/20 12:00:40;;;;;;;;;;;24.80;47.60;;;;;;1588609;73;796;-70
2021/07/20 12:03:00;;;;;;;;;;;24.90;47.90;;;;;;1595067;73;762;-68
2021/07/20 12:05:04;;;;;;;;;;;24.80;47.50;;;;;;1599819;73;782;-72
2021/07/20 12:07:14;;;;;;;;;;;24.80;47.40;;;;;;1592256;73;1164;-72
2021/07/20 12:09:20;;;;;;;;;;;24.80;45.50;;;;;;1595370;73;963;-73
2021/07/20 12:11:23;;;;;;;;;;;24.70;46.70;;;;;;1597669;73;738;-70
2021/07/20 12:13:25;;;;;;;;;;;24.80;46.80;;;;;;1590415;73;1939;-72
2021/07/20 12:15:28;;;;;;;;;;;24.80;46.80;;;;;;1564616;76;750;-70
2021/07/20 12:17:33;;;;;;;;;;;24.80;46.90;;;;;;1582151;73;1174;-70
2021/07/20 12:19:36;;;;;;;;;;;24.80;47.20;;;;;;1588793;73;745;-70
2021/07/20 12:21:38;;;;;;;;;;;24.80;47.30;;;;;;1593970;73;772;-72
2021/07/20 12:23:40;;;;;;;;;;;24.70;47.30;;;;;;1595131;73;797;-70